sensor_id;sensor_type;location;lat;lon;timestamp;temperature;humidity
19538;DHT22;9914;51.008;4.300;2023-12-20T00:01:29;7.70;99.90
19538;DHT22;9914;51.008;4.300;2023-12-20T00:03:54;7.70;99.90
19538;DHT22;9914;51.008;4.300;2023-12-20T00:06:20;7.60;99.90
19538;DHT22;9914;51.008;4.300;2023-12-20T00:08:46;7.60;99.90
19538;DHT22;9914;51.008;4.300;2023-12-20T00:11:11;7.50;99.90
19538;DHT22;9914;51.008;4.300;2023-12-20T00:13:37;7.50;99.90
19538;DHT22;9914;51.008;4.300;2023-12-20T00:16:03;7.50;99.90
19538;DHT22;9914;51.008;4.300;2023-12-20T00:18:29;7.40;99.90
19538;DHT22;9914;51.008;4.300;2023-12-20T00:20:54;7.50;99.90
19538;DHT22;9914;51.008;4.300;2023-12-20T00:23:20;7.50;99.90
19538;DHT22;9914;51.008;4.300;2023-12-20T00:25:46;7.50;99.90
19538;DHT22;9914;51.008;4.300;2023-12-20T00:28:12;7.40;99.90
19538;DHT22;9914;51.008;4.300;2023-12-20T00:30:38;7.40;99.90
19538;DHT22;9914;51.008;4.300;2023-12-20T00:33:04;7.50;99.90
19538;DHT22;9914;51.008;4.300;2023-12-20T00:35:29;7.50;99.90
19538;DHT22;9914;51.008;4.300;2023-12-20T00:37:55;7.60;99.90
19538;DHT22;9914;51.008;4.300;2023-12-20T00:40:20;7.60;99.90
19538;DHT22;9914;51.008;4.300;2023-12-20T00:42:47;7.60;99.90
19538;DHT22;9914;51.008;4.300;2023-12-20T00:45:13;7.50;99.90
19538;DHT22;9914;51.008;4.300;2023-12-20T00:47:40;7.50;99.90
19538;DHT22;9914;51.008;4.300;2023-12-20T00:50:07;7.50;99.90
19538;DHT22;9914;51.008;4.300;2023-12-20T00:52:32;7.50;99.90
19538;DHT22;9914;51.008;4.300;2023-12-20T00:54:58;7.40;99.90
19538;DHT22;9914;51.008;4.300;2023-12-20T00:57:24;7.30;99.90
19538;DHT22;9914;51.008;4.300;2023-12-20T00:59:50;7.30;99.90
19538;DHT22;9914;51.008;4.300;2023-12-20T01:02:16;7.30;99.90
19538;DHT22;9914;51.008;4.300;2023-12-20T01:04:42;7.20;99.90
19538;DHT22;9914;51.008;4.300;2023-12-20T01:07:08;7.30;99.90
19538;DHT22;9914;51.008;4.300;2023-12-20T01:09:33;7.20;99.90
19538;DHT22;9914;51.008;4.300;2023-12-20T01:11:59;7.20;99.90
19538;DHT22;9914;51.008;4.300;2023-12-20T01:14:25;7.20;99.90
19538;DHT22;9914;51.008;4.300;2023-12-20T01:16:51;7.10;99.90
19538;DHT22;9914;51.008;4.300;2023-12-20T01:19:16;7.10;99.90
19538;DHT22;9914;51.008;4.300;2023-12-20T01:21:42;7.10;99.90
19538;DHT22;9914;51.008;4.300;2023-12-20T01:24:08;7.10;99.90
19538;DHT22;9914;51.008;4.300;2023-12-20T01:26:33;7.10;99.90
19538;DHT22;9914;51.008;4.300;2023-12-20T01:28:59;7.10;99.90
19538;DHT22;9914;51.008;4.300;2023-12-20T01:31:25;7.00;99.90
19538;DHT22;9914;51.008;4.300;2023-12-20T01:33:52;7.00;99.90
19538;DHT22;9914;51.008;4.300;2023-12-20T01:36:18;7.00;99.90
19538;DHT22;9914;51.008;4.300;2023-12-20T01:38:44;7.00;99.90
19538;DHT22;9914;51.008;4.300;2023-12-20T01:41:09;7.00;99.90
19538;DHT22;9914;51.008;4.300;2023-12-20T01:43:35;7.00;99.90
19538;DHT22;9914;51.008;4.300;2023-12-20T01:46:01;7.00;99.90
19538;DHT22;9914;51.008;4.300;2023-12-20T01:48:27;7.00;99.90
19538;DHT22;9914;51.008;4.300;2023-12-20T01:50:54;7.00;99.90
19538;DHT22;9914;51.008;4.300;2023-12-20T01:53:21;7.10;99.90
19538;DHT22;9914;51.008;4.300;2023-12-20T01:55:50;7.00;99.90
19538;DHT22;9914;51.008;4.300;2023-12-20T01:58:17;7.00;99.90
19538;DHT22;9914;51.008;4.300;2023-12-20T02:00:44;7.00;99.90
19538;DHT22;9914;51.008;4.300;2023-12-20T02:03:10;6.90;99.90
19538;DHT22;9914;51.008;4.300;2023-12-20T02:05:38;6.90;99.90
19538;DHT22;9914;51.008;4.300;2023-12-20T02:08:04;6.90;99.90
19538;DHT22;9914;51.008;4.300;2023-12-20T02:10:31;7.00;99.90
19538;DHT22;9914;51.008;4.300;2023-12-20T02:12:57;7.00;99.90
19538;DHT22;9914;51.008;4.300;2023-12-20T02:15:23;7.00;99.90
19538;DHT22;9914;51.008;4.300;2023-12-20T02:17:49;7.10;99.90
19538;DHT22;9914;51.008;4.300;2023-12-20T02:20:15;7.20;99.90
19538;DHT22;9914;51.008;4.300;2023-12-20T02:22:41;7.20;99.90
19538;DHT22;9914;51.008;4.300;2023-12-20T02:25:07;7.30;99.90
19538;DHT22;9914;51.008;4.300;2023-12-20T02:27:32;7.40;99.90
19538;DHT22;9914;51.008;4.300;2023-12-20T02:29:58;7.40;99.90
19538;DHT22;9914;51.008;4.300;2023-12-20T02:32:25;7.40;99.90
19538;DHT22;9914;51.008;4.300;2023-12-20T02:34:54;7.40;99.90
19538;DHT22;9914;51.008;4.300;2023-12-20T02:37:20;7.40;99.90
19538;DHT22;9914;51.008;4.300;2023-12-20T02:39:46;7.40;99.90
19538;DHT22;9914;51.008;4.300;2023-12-20T02:42:11;7.50;99.90
19538;DHT22;9914;51.008;4.300;2023-12-20T02:44:37;7.50;99.90
19538;DHT22;9914;51.008;4.300;2023-12-20T02:47:03;7.50;99.90
19538;DHT22;9914;51.008;4.300;2023-12-20T02:49:28;7.50;99.90
19538;DHT22;9914;51.008;4.300;2023-12-20T02:51:54;7.60;99.90
19538;DHT22;9914;51.008;4.300;2023-12-20T02:54:20;7.60;99.90
19538;DHT22;9914;51.008;4.300;2023-12-20T02:56:45;7.70;99.90
19538;DHT22;9914;51.008;4.300;2023-12-20T02:59:11;7.70;99.90
19538;DHT22;9914;51.008;4.300;2023-12-20T03:01:46;7.70;99.90
19538;DHT22;9914;51.008;4.300;2023-12-20T03:04:12;7.60;99.90
19538;DHT22;9914;51.008;4.300;2023-12-20T03:06:38;7.60;99.90
19538;DHT22;9914;51.008;4.300;2023-12-20T03:09:04;7.70;99.90
19538;DHT22;9914;51.008;4.300;2023-12-20T03:11:30;7.70;99.90
19538;DHT22;9914;51.008;4.300;2023-12-20T03:13:56;7.70;99.90
19538;DHT22;9914;51.008;4.300;2023-12-20T03:16:22;7.70;99.90
19538;DHT22;9914;51.008;4.300;2023-12-20T03:18:48;7.70;99.90
19538;DHT22;9914;51.008;4.300;2023-12-20T03:21:15;7.80;99.90
19538;DHT22;9914;51.008;4.300;2023-12-20T03:23:41;7.80;99.90
19538;DHT22;9914;51.008;4.300;2023-12-20T03:26:07;7.90;99.90
19538;DHT22;9914;51.008;4.300;2023-12-20T03:28:33;7.90;99.90
19538;DHT22;9914;51.008;4.300;2023-12-20T03:30:59;7.90;99.90
19538;DHT22;9914;51.008;4.300;2023-12-20T03:33:25;7.90;99.90
19538;DHT22;9914;51.008;4.300;2023-12-20T03:35:51;7.90;99.90
19538;DHT22;9914;51.008;4.300;2023-12-20T03:38:16;7.90;99.90
19538;DHT22;9914;51.008;4.300;2023-12-20T03:40:42;7.90;99.90
19538;DHT22;9914;51.008;4.300;2023-12-20T03:43:08;7.90;99.90
19538;DHT22;9914;51.008;4.300;2023-12-20T03:45:34;8.00;99.90
19538;DHT22;9914;51.008;4.300;2023-12-20T03:48:00;8.00;99.90
19538;DHT22;9914;51.008;4.300;2023-12-20T03:50:26;7.90;99.90
19538;DHT22;9914;51.008;4.300;2023-12-20T03:52:52;8.00;99.90
19538;DHT22;9914;51.008;4.300;2023-12-20T03:55:18;8.00;99.90
19538;DHT22;9914;51.008;4.300;2023-12-20T03:57:44;7.90;99.90
19538;DHT22;9914;51.008;4.300;2023-12-20T04:00:10;7.80;99.90
19538;DHT22;9914;51.008;4.300;2023-12-20T04:02:37;7.80;99.90
19538;DHT22;9914;51.008;4.300;2023-12-20T04:05:03;7.70;99.90
19538;DHT22;9914;51.008;4.300;2023-12-20T04:07:30;7.70;99.90
19538;DHT22;9914;51.008;4.300;2023-12-20T04:09:56;7.80;99.90
19538;DHT22;9914;51.008;4.300;2023-12-20T04:12:21;7.70;99.90
19538;DHT22;9914;51.008;4.300;2023-12-20T04:14:47;7.70;99.90
19538;DHT22;9914;51.008;4.300;2023-12-20T04:17:13;7.70;99.90
19538;DHT22;9914;51.008;4.300;2023-12-20T04:19:39;7.70;99.90
19538;DHT22;9914;51.008;4.300;2023-12-20T04:22:05;7.70;99.90
19538;DHT22;9914;51.008;4.300;2023-12-20T04:24:30;7.70;99.90
19538;DHT22;9914;51.008;4.300;2023-12-20T04:26:57;7.70;99.90
19538;DHT22;9914;51.008;4.300;2023-12-20T04:29:22;7.70;99.90
19538;DHT22;9914;51.008;4.300;2023-12-20T04:31:49;7.70;99.90
19538;DHT22;9914;51.008;4.300;2023-12-20T04:34:17;7.70;99.90
19538;DHT22;9914;51.008;4.300;2023-12-20T04:36:43;7.70;99.90
19538;DHT22;9914;51.008;4.300;2023-12-20T04:39:08;7.60;99.90
19538;DHT22;9914;51.008;4.300;2023-12-20T04:41:34;7.60;99.90
19538;DHT22;9914;51.008;4.300;2023-12-20T04:44:00;7.60;99.90
19538;DHT22;9914;51.008;4.300;2023-12-20T04:46:26;7.60;99.90
19538;DHT22;9914;51.008;4.300;2023-12-20T04:48:51;7.60;99.90
19538;DHT22;9914;51.008;4.300;2023-12-20T04:51:17;7.60;99.90
19538;DHT22;9914;51.008;4.300;2023-12-20T04:53:43;7.60;99.90
19538;DHT22;9914;51.008;4.300;2023-12-20T04:56:08;7.50;99.90
19538;DHT22;9914;51.008;4.300;2023-12-20T04:58:34;7.30;99.90
19538;DHT22;9914;51.008;4.300;2023-12-20T05:01:00;7.30;99.90
19538;DHT22;9914;51.008;4.300;2023-12-20T05:03:26;7.30;99.90
19538;DHT22;9914;51.008;4.300;2023-12-20T05:05:51;7.30;99.90
19538;DHT22;9914;51.008;4.300;2023-12-20T05:08:18;7.20;99.90
19538;DHT22;9914;51.008;4.300;2023-12-20T05:10:45;7.20;99.90
19538;DHT22;9914;51.008;4.300;2023-12-20T05:13:10;7.20;99.90
19538;DHT22;9914;51.008;4.300;2023-12-20T05:15:36;7.20;99.90
19538;DHT22;9914;51.008;4.300;2023-12-20T05:18:02;7.20;99.90
19538;DHT22;9914;51.008;4.300;2023-12-20T05:20:27;7.20;99.90
19538;DHT22;9914;51.008;4.300;2023-12-20T05:22:53;7.20;99.90
19538;DHT22;9914;51.008;4.300;2023-12-20T05:25:19;7.20;99.90
19538;DHT22;9914;51.008;4.300;2023-12-20T05:27:45;7.10;99.90
19538;DHT22;9914;51.008;4.300;2023-12-20T05:30:11;7.10;99.90
19538;DHT22;9914;51.008;4.300;2023-12-20T05:32:36;7.00;99.90
19538;DHT22;9914;51.008;4.300;2023-12-20T05:35:02;7.00;99.90
19538;DHT22;9914;51.008;4.300;2023-12-20T05:37:28;7.00;99.90
19538;DHT22;9914;51.008;4.300;2023-12-20T05:39:54;7.00;99.90
19538;DHT22;9914;51.008;4.300;2023-12-20T05:42:19;7.00;99.90
19538;DHT22;9914;51.008;4.300;2023-12-20T05:44:45;7.00;99.90
19538;DHT22;9914;51.008;4.300;2023-12-20T05:47:11;7.00;99.90
19538;DHT22;9914;51.008;4.300;2023-12-20T05:49:36;7.00;99.90
19538;DHT22;9914;51.008;4.300;2023-12-20T05:52:02;7.00;99.90
19538;DHT22;9914;51.008;4.300;2023-12-20T05:54:28;7.10;99.90
19538;DHT22;9914;51.008;4.300;2023-12-20T05:56:53;7.20;99.90
19538;DHT22;9914;51.008;4.300;2023-12-20T05:59:19;7.20;99.90
19538;DHT22;9914;51.008;4.300;2023-12-20T06:01:45;7.20;99.90
19538;DHT22;9914;51.008;4.300;2023-12-20T06:04:10;7.10;99.90
19538;DHT22;9914;51.008;4.300;2023-12-20T06:06:43;7.10;99.90
19538;DHT22;9914;51.008;4.300;2023-12-20T06:09:09;7.00;99.90
19538;DHT22;9914;51.008;4.300;2023-12-20T06:11:35;7.10;99.90
19538;DHT22;9914;51.008;4.300;2023-12-20T06:14:00;7.20;99.90
19538;DHT22;9914;51.008;4.300;2023-12-20T06:16:26;7.30;99.90
19538;DHT22;9914;51.008;4.300;2023-12-20T06:18:52;7.40;99.90
19538;DHT22;9914;51.008;4.300;2023-12-20T06:21:18;7.40;99.90
19538;DHT22;9914;51.008;4.300;2023-12-20T06:23:43;7.40;99.90
19538;DHT22;9914;51.008;4.300;2023-12-20T06:26:09;7.30;99.90
19538;DHT22;9914;51.008;4.300;2023-12-20T06:28:34;7.30;99.90
19538;DHT22;9914;51.008;4.300;2023-12-20T06:31:00;7.30;99.90
19538;DHT22;9914;51.008;4.300;2023-12-20T06:33:26;7.20;99.90
19538;DHT22;9914;51.008;4.300;2023-12-20T06:35:52;7.20;99.90
19538;DHT22;9914;51.008;4.300;2023-12-20T06:38:18;7.10;99.90
19538;DHT22;9914;51.008;4.300;2023-12-20T06:40:44;7.10;99.90
19538;DHT22;9914;51.008;4.300;2023-12-20T06:43:10;7.10;99.90
19538;DHT22;9914;51.008;4.300;2023-12-20T06:45:36;7.10;99.90
19538;DHT22;9914;51.008;4.300;2023-12-20T06:48:01;7.10;99.90
19538;DHT22;9914;51.008;4.300;2023-12-20T06:50:27;7.00;99.90
19538;DHT22;9914;51.008;4.300;2023-12-20T06:52:53;7.00;99.90
19538;DHT22;9914;51.008;4.300;2023-12-20T06:55:18;7.00;99.90
19538;DHT22;9914;51.008;4.300;2023-12-20T06:57:44;7.00;99.90
19538;DHT22;9914;51.008;4.300;2023-12-20T07:00:11;7.10;99.90
19538;DHT22;9914;51.008;4.300;2023-12-20T07:02:37;7.10;99.90
19538;DHT22;9914;51.008;4.300;2023-12-20T07:05:03;7.10;99.90
19538;DHT22;9914;51.008;4.300;2023-12-20T07:07:29;7.10;99.90
19538;DHT22;9914;51.008;4.300;2023-12-20T07:09:55;7.20;99.90
19538;DHT22;9914;51.008;4.300;2023-12-20T07:12:21;7.10;99.90
19538;DHT22;9914;51.008;4.300;2023-12-20T07:14:47;7.00;99.90
19538;DHT22;9914;51.008;4.300;2023-12-20T07:17:12;7.00;99.90
19538;DHT22;9914;51.008;4.300;2023-12-20T07:19:40;6.90;99.90
19538;DHT22;9914;51.008;4.300;2023-12-20T07:22:06;6.90;99.90
19538;DHT22;9914;51.008;4.300;2023-12-20T07:24:32;6.90;99.90
19538;DHT22;9914;51.008;4.300;2023-12-20T07:27:00;7.00;99.90
19538;DHT22;9914;51.008;4.300;2023-12-20T07:29:25;6.90;99.90
19538;DHT22;9914;51.008;4.300;2023-12-20T07:31:52;6.90;99.90
19538;DHT22;9914;51.008;4.300;2023-12-20T07:34:20;6.90;99.90
19538;DHT22;9914;51.008;4.300;2023-12-20T07:36:45;6.90;99.90
19538;DHT22;9914;51.008;4.300;2023-12-20T07:39:14;6.90;99.90
19538;DHT22;9914;51.008;4.300;2023-12-20T07:41:39;6.90;99.90
19538;DHT22;9914;51.008;4.300;2023-12-20T07:44:06;6.90;99.90
19538;DHT22;9914;51.008;4.300;2023-12-20T07:46:32;6.90;99.90
19538;DHT22;9914;51.008;4.300;2023-12-20T07:48:58;6.80;99.90
19538;DHT22;9914;51.008;4.300;2023-12-20T07:51:24;6.80;99.90
19538;DHT22;9914;51.008;4.300;2023-12-20T07:53:49;6.90;99.90
19538;DHT22;9914;51.008;4.300;2023-12-20T07:56:16;6.80;99.90
19538;DHT22;9914;51.008;4.300;2023-12-20T07:58:42;6.80;99.90
19538;DHT22;9914;51.008;4.300;2023-12-20T08:01:10;6.80;99.90
19538;DHT22;9914;51.008;4.300;2023-12-20T08:03:36;6.90;99.90
19538;DHT22;9914;51.008;4.300;2023-12-20T08:06:02;6.90;99.90
19538;DHT22;9914;51.008;4.300;2023-12-20T08:08:28;6.90;99.90
19538;DHT22;9914;51.008;4.300;2023-12-20T08:10:53;7.00;99.90
19538;DHT22;9914;51.008;4.300;2023-12-20T08:13:19;7.00;99.90
19538;DHT22;9914;51.008;4.300;2023-12-20T08:15:45;7.10;99.90
19538;DHT22;9914;51.008;4.300;2023-12-20T08:18:10;7.10;99.90
19538;DHT22;9914;51.008;4.300;2023-12-20T08:20:36;7.20;99.90
19538;DHT22;9914;51.008;4.300;2023-12-20T08:23:02;7.30;99.90
19538;DHT22;9914;51.008;4.300;2023-12-20T08:25:28;7.40;99.90
19538;DHT22;9914;51.008;4.300;2023-12-20T08:27:53;7.40;99.90
19538;DHT22;9914;51.008;4.300;2023-12-20T08:30:19;7.50;99.90
19538;DHT22;9914;51.008;4.300;2023-12-20T08:32:48;7.50;99.90
19538;DHT22;9914;51.008;4.300;2023-12-20T08:35:14;7.40;99.90
19538;DHT22;9914;51.008;4.300;2023-12-20T08:37:39;7.40;99.90
19538;DHT22;9914;51.008;4.300;2023-12-20T08:40:06;7.40;99.90
19538;DHT22;9914;51.008;4.300;2023-12-20T08:42:31;7.30;99.90
19538;DHT22;9914;51.008;4.300;2023-12-20T08:44:57;7.30;99.90
19538;DHT22;9914;51.008;4.300;2023-12-20T08:47:26;7.20;99.90
19538;DHT22;9914;51.008;4.300;2023-12-20T08:49:52;7.10;99.90
19538;DHT22;9914;51.008;4.300;2023-12-20T08:52:22;7.20;99.90
19538;DHT22;9914;51.008;4.300;2023-12-20T08:54:49;7.20;99.90
19538;DHT22;9914;51.008;4.300;2023-12-20T08:57:19;7.20;99.90
19538;DHT22;9914;51.008;4.300;2023-12-20T08:59:44;7.20;99.90
19538;DHT22;9914;51.008;4.300;2023-12-20T09:02:10;7.20;99.90
19538;DHT22;9914;51.008;4.300;2023-12-20T09:04:36;7.30;99.90
19538;DHT22;9914;51.008;4.300;2023-12-20T09:07:01;7.30;99.90
19538;DHT22;9914;51.008;4.300;2023-12-20T09:09:27;7.30;99.90
19538;DHT22;9914;51.008;4.300;2023-12-20T09:11:52;7.40;99.90
19538;DHT22;9914;51.008;4.300;2023-12-20T09:14:18;7.40;99.90
19538;DHT22;9914;51.008;4.300;2023-12-20T09:16:44;7.50;99.90
19538;DHT22;9914;51.008;4.300;2023-12-20T09:19:10;7.50;99.90
19538;DHT22;9914;51.008;4.300;2023-12-20T09:21:35;7.50;99.90
19538;DHT22;9914;51.008;4.300;2023-12-20T09:24:01;7.60;99.90
19538;DHT22;9914;51.008;4.300;2023-12-20T09:26:27;7.70;99.90
19538;DHT22;9914;51.008;4.300;2023-12-20T09:28:52;7.80;99.90
19538;DHT22;9914;51.008;4.300;2023-12-20T09:31:18;7.90;99.90
19538;DHT22;9914;51.008;4.300;2023-12-20T09:33:43;8.00;99.90
19538;DHT22;9914;51.008;4.300;2023-12-20T09:36:09;8.10;99.90
19538;DHT22;9914;51.008;4.300;2023-12-20T09:38:35;8.20;99.90
19538;DHT22;9914;51.008;4.300;2023-12-20T09:41:00;8.30;99.90
19538;DHT22;9914;51.008;4.300;2023-12-20T09:43:29;8.30;99.90
19538;DHT22;9914;51.008;4.300;2023-12-20T09:45:59;8.40;99.90
19538;DHT22;9914;51.008;4.300;2023-12-20T09:48:26;8.50;99.90
19538;DHT22;9914;51.008;4.300;2023-12-20T09:50:53;8.50;99.90
19538;DHT22;9914;51.008;4.300;2023-12-20T09:53:19;8.40;99.90
19538;DHT22;9914;51.008;4.300;2023-12-20T09:55:45;8.40;99.90
19538;DHT22;9914;51.008;4.300;2023-12-20T09:58:11;8.30;99.90
19538;DHT22;9914;51.008;4.300;2023-12-20T10:00:36;8.20;99.90
19538;DHT22;9914;51.008;4.300;2023-12-20T10:03:03;8.20;99.90
19538;DHT22;9914;51.008;4.300;2023-12-20T10:05:32;8.10;99.90
19538;DHT22;9914;51.008;4.300;2023-12-20T10:07:59;8.20;99.90
19538;DHT22;9914;51.008;4.300;2023-12-20T10:10:26;8.30;99.90
19538;DHT22;9914;51.008;4.300;2023-12-20T10:13:06;8.20;99.90
19538;DHT22;9914;51.008;4.300;2023-12-20T10:15:33;8.30;99.90
19538;DHT22;9914;51.008;4.300;2023-12-20T10:17:59;8.30;99.90
19538;DHT22;9914;51.008;4.300;2023-12-20T10:20:25;8.30;99.90
19538;DHT22;9914;51.008;4.300;2023-12-20T10:22:51;8.40;99.90
19538;DHT22;9914;51.008;4.300;2023-12-20T10:25:20;8.50;99.90
19538;DHT22;9914;51.008;4.300;2023-12-20T10:27:46;8.60;99.90
19538;DHT22;9914;51.008;4.300;2023-12-20T10:30:12;8.70;99.90
19538;DHT22;9914;51.008;4.300;2023-12-20T10:32:38;8.70;99.90
19538;DHT22;9914;51.008;4.300;2023-12-20T10:35:04;8.80;99.90
19538;DHT22;9914;51.008;4.300;2023-12-20T10:37:30;8.90;99.90
19538;DHT22;9914;51.008;4.300;2023-12-20T10:39:55;8.90;99.90
19538;DHT22;9914;51.008;4.300;2023-12-20T10:42:25;8.90;99.90
19538;DHT22;9914;51.008;4.300;2023-12-20T10:44:51;9.00;99.90
19538;DHT22;9914;51.008;4.300;2023-12-20T10:47:20;9.10;99.90
19538;DHT22;9914;51.008;4.300;2023-12-20T10:49:46;9.20;99.90
19538;DHT22;9914;51.008;4.300;2023-12-20T10:52:13;9.20;99.90
19538;DHT22;9914;51.008;4.300;2023-12-20T10:54:40;9.10;99.90
19538;DHT22;9914;51.008;4.300;2023-12-20T10:57:07;9.20;99.90
19538;DHT22;9914;51.008;4.300;2023-12-20T10:59:39;9.30;99.90
19538;DHT22;9914;51.008;4.300;2023-12-20T11:02:06;9.40;99.90
19538;DHT22;9914;51.008;4.300;2023-12-20T11:04:56;9.50;99.90
19538;DHT22;9914;51.008;4.300;2023-12-20T11:07:25;9.50;99.90
19538;DHT22;9914;51.008;4.300;2023-12-20T11:10:13;9.40;99.90
19538;DHT22;9914;51.008;4.300;2023-12-20T11:12:57;9.30;99.90
19538;DHT22;9914;51.008;4.300;2023-12-20T11:15:23;9.20;99.90
19538;DHT22;9914;51.008;4.300;2023-12-20T11:17:57;9.20;99.90
19538;DHT22;9914;51.008;4.300;2023-12-20T11:20:24;9.30;99.90
19538;DHT22;9914;51.008;4.300;2023-12-20T11:22:54;9.20;99.90
19538;DHT22;9914;51.008;4.300;2023-12-20T11:25:20;9.30;99.90
19538;DHT22;9914;51.008;4.300;2023-12-20T11:30:47;9.40;99.90
19538;DHT22;9914;51.008;4.300;2023-12-20T11:33:14;9.50;99.90
19538;DHT22;9914;51.008;4.300;2023-12-20T11:35:40;9.60;99.90
19538;DHT22;9914;51.008;4.300;2023-12-20T11:38:10;9.60;99.90
19538;DHT22;9914;51.008;4.300;2023-12-20T11:40:36;9.50;99.90
19538;DHT22;9914;51.008;4.300;2023-12-20T11:43:03;9.60;99.90
19538;DHT22;9914;51.008;4.300;2023-12-20T11:45:30;9.50;99.90
19538;DHT22;9914;51.008;4.300;2023-12-20T11:47:56;9.50;99.90
19538;DHT22;9914;51.008;4.300;2023-12-20T11:50:24;9.40;99.90
19538;DHT22;9914;51.008;4.300;2023-12-20T11:52:51;9.50;99.90
19538;DHT22;9914;51.008;4.300;2023-12-20T11:55:17;9.50;99.90
19538;DHT22;9914;51.008;4.300;2023-12-20T11:57:43;9.50;99.90
19538;DHT22;9914;51.008;4.300;2023-12-20T12:00:10;9.50;99.90
19538;DHT22;9914;51.008;4.300;2023-12-20T12:02:36;9.50;99.90
19538;DHT22;9914;51.008;4.300;2023-12-20T12:05:02;9.50;99.90
19538;DHT22;9914;51.008;4.300;2023-12-20T12:07:31;9.70;99.90
19538;DHT22;9914;51.008;4.300;2023-12-20T12:09:57;9.70;99.90
19538;DHT22;9914;51.008;4.300;2023-12-20T12:12:24;9.80;99.90
19538;DHT22;9914;51.008;4.300;2023-12-20T12:14:53;9.80;99.90
19538;DHT22;9914;51.008;4.300;2023-12-20T12:17:18;9.80;99.90
19538;DHT22;9914;51.008;4.300;2023-12-20T12:19:44;9.80;99.90
19538;DHT22;9914;51.008;4.300;2023-12-20T12:22:12;9.80;99.90
19538;DHT22;9914;51.008;4.300;2023-12-20T12:24:48;9.80;99.90
19538;DHT22;9914;51.008;4.300;2023-12-20T12:27:15;9.90;99.90
19538;DHT22;9914;51.008;4.300;2023-12-20T12:29:43;9.90;99.90
19538;DHT22;9914;51.008;4.300;2023-12-20T12:32:25;10.00;99.90
19538;DHT22;9914;51.008;4.300;2023-12-20T12:34:51;10.10;99.90
19538;DHT22;9914;51.008;4.300;2023-12-20T12:37:16;10.10;99.90
19538;DHT22;9914;51.008;4.300;2023-12-20T12:39:42;10.00;99.90
19538;DHT22;9914;51.008;4.300;2023-12-20T12:42:08;9.90;99.90
19538;DHT22;9914;51.008;4.300;2023-12-20T12:44:33;9.90;99.90
19538;DHT22;9914;51.008;4.300;2023-12-20T12:46:59;10.00;99.90
19538;DHT22;9914;51.008;4.300;2023-12-20T12:49:25;10.20;99.90
19538;DHT22;9914;51.008;4.300;2023-12-20T12:51:53;10.20;99.90
19538;DHT22;9914;51.008;4.300;2023-12-20T12:54:21;10.30;99.90
19538;DHT22;9914;51.008;4.300;2023-12-20T12:56:50;10.20;99.90
19538;DHT22;9914;51.008;4.300;2023-12-20T12:59:18;10.10;99.90
19538;DHT22;9914;51.008;4.300;2023-12-20T13:01:44;10.00;99.90
19538;DHT22;9914;51.008;4.300;2023-12-20T13:04:09;10.00;99.90
19538;DHT22;9914;51.008;4.300;2023-12-20T13:06:39;10.00;99.90
19538;DHT22;9914;51.008;4.300;2023-12-20T13:09:06;10.00;99.90
19538;DHT22;9914;51.008;4.300;2023-12-20T13:11:33;10.00;99.90
19538;DHT22;9914;51.008;4.300;2023-12-20T13:13:59;10.00;99.90
19538;DHT22;9914;51.008;4.300;2023-12-20T13:16:25;10.00;99.90
19538;DHT22;9914;51.008;4.300;2023-12-20T13:18:50;10.20;99.90
19538;DHT22;9914;51.008;4.300;2023-12-20T13:21:16;10.20;99.90
19538;DHT22;9914;51.008;4.300;2023-12-20T13:23:42;10.20;99.90
19538;DHT22;9914;51.008;4.300;2023-12-20T13:26:08;10.30;99.90
19538;DHT22;9914;51.008;4.300;2023-12-20T13:28:34;10.40;99.90
19538;DHT22;9914;51.008;4.300;2023-12-20T13:30:59;10.40;99.90
19538;DHT22;9914;51.008;4.300;2023-12-20T13:33:25;10.20;99.90
19538;DHT22;9914;51.008;4.300;2023-12-20T13:35:51;10.10;99.90
19538;DHT22;9914;51.008;4.300;2023-12-20T13:38:17;10.10;99.90
19538;DHT22;9914;51.008;4.300;2023-12-20T13:40:43;10.20;99.90
19538;DHT22;9914;51.008;4.300;2023-12-20T13:43:08;10.20;99.90
19538;DHT22;9914;51.008;4.300;2023-12-20T13:45:36;10.20;99.90
19538;DHT22;9914;51.008;4.300;2023-12-20T13:48:02;10.20;99.90
19538;DHT22;9914;51.008;4.300;2023-12-20T13:50:28;10.20;99.90
19538;DHT22;9914;51.008;4.300;2023-12-20T13:52:54;10.20;99.90
19538;DHT22;9914;51.008;4.300;2023-12-20T13:55:20;10.20;99.90
19538;DHT22;9914;51.008;4.300;2023-12-20T13:57:50;10.30;99.90
19538;DHT22;9914;51.008;4.300;2023-12-20T14:00:16;10.40;99.90
19538;DHT22;9914;51.008;4.300;2023-12-20T14:02:42;10.50;99.90
19538;DHT22;9914;51.008;4.300;2023-12-20T14:05:09;10.50;99.90
19538;DHT22;9914;51.008;4.300;2023-12-20T14:07:35;10.50;99.90
19538;DHT22;9914;51.008;4.300;2023-12-20T14:10:00;10.50;99.90
19538;DHT22;9914;51.008;4.300;2023-12-20T14:12:26;10.40;99.90
19538;DHT22;9914;51.008;4.300;2023-12-20T14:14:52;10.50;99.90
19538;DHT22;9914;51.008;4.300;2023-12-20T14:17:17;10.50;99.90
19538;DHT22;9914;51.008;4.300;2023-12-20T14:19:43;10.60;99.90
19538;DHT22;9914;51.008;4.300;2023-12-20T14:22:09;10.60;99.90
19538;DHT22;9914;51.008;4.300;2023-12-20T14:24:37;10.60;99.90
19538;DHT22;9914;51.008;4.300;2023-12-20T14:27:03;10.50;99.90
19538;DHT22;9914;51.008;4.300;2023-12-20T14:29:29;10.50;99.90
19538;DHT22;9914;51.008;4.300;2023-12-20T14:31:54;10.50;99.90
19538;DHT22;9914;51.008;4.300;2023-12-20T14:34:20;10.60;99.90
19538;DHT22;9914;51.008;4.300;2023-12-20T14:36:46;10.60;99.90
19538;DHT22;9914;51.008;4.300;2023-12-20T14:39:11;10.60;99.90
19538;DHT22;9914;51.008;4.300;2023-12-20T14:41:38;10.70;99.90
19538;DHT22;9914;51.008;4.300;2023-12-20T14:44:05;10.60;99.90
19538;DHT22;9914;51.008;4.300;2023-12-20T14:46:32;10.60;99.90
19538;DHT22;9914;51.008;4.300;2023-12-20T14:48:57;10.50;99.90
19538;DHT22;9914;51.008;4.300;2023-12-20T14:51:23;10.60;99.90
19538;DHT22;9914;51.008;4.300;2023-12-20T14:53:50;10.60;99.90
19538;DHT22;9914;51.008;4.300;2023-12-20T14:56:15;10.60;99.90
19538;DHT22;9914;51.008;4.300;2023-12-20T14:58:41;10.60;99.90
19538;DHT22;9914;51.008;4.300;2023-12-20T15:01:07;10.50;99.90
19538;DHT22;9914;51.008;4.300;2023-12-20T15:03:34;10.50;99.90
19538;DHT22;9914;51.008;4.300;2023-12-20T15:06:00;10.50;99.90
19538;DHT22;9914;51.008;4.300;2023-12-20T15:08:26;10.50;99.90
19538;DHT22;9914;51.008;4.300;2023-12-20T15:10:52;10.60;99.90
19538;DHT22;9914;51.008;4.300;2023-12-20T15:13:17;10.40;99.90
19538;DHT22;9914;51.008;4.300;2023-12-20T15:15:43;10.40;99.90
19538;DHT22;9914;51.008;4.300;2023-12-20T15:18:09;10.50;99.90
19538;DHT22;9914;51.008;4.300;2023-12-20T15:20:35;10.40;99.90
19538;DHT22;9914;51.008;4.300;2023-12-20T15:23:02;10.50;99.90
19538;DHT22;9914;51.008;4.300;2023-12-20T15:25:32;10.50;99.90
19538;DHT22;9914;51.008;4.300;2023-12-20T15:27:58;10.50;99.90
19538;DHT22;9914;51.008;4.300;2023-12-20T15:30:24;10.50;99.90
19538;DHT22;9914;51.008;4.300;2023-12-20T15:32:50;10.60;99.90
19538;DHT22;9914;51.008;4.300;2023-12-20T15:35:16;10.60;99.90
19538;DHT22;9914;51.008;4.300;2023-12-20T15:37:42;10.70;99.90
19538;DHT22;9914;51.008;4.300;2023-12-20T15:40:09;10.70;99.90
19538;DHT22;9914;51.008;4.300;2023-12-20T15:42:36;10.70;99.90
19538;DHT22;9914;51.008;4.300;2023-12-20T15:45:06;10.70;99.90
19538;DHT22;9914;51.008;4.300;2023-12-20T15:47:33;10.70;99.90
19538;DHT22;9914;51.008;4.300;2023-12-20T15:49:59;10.70;99.90
19538;DHT22;9914;51.008;4.300;2023-12-20T15:52:24;10.70;99.90
19538;DHT22;9914;51.008;4.300;2023-12-20T15:54:50;10.80;99.90